sensor_id;sensor_type;location;lat;lon;timestamp;P1;durP1;ratioP1;P2;durP2;ratioP2
23754;SDS011;12057;52.042;6.830;2023-02-22T00:01:26;157.07;;;39.20;;
23754;SDS011;12057;52.042;6.830;2023-02-22T00:06:46;128.98;;;36.35;;
23754;SDS011;12057;52.042;6.830;2023-02-22T00:11:48;144.20;;;38.05;;
23754;SDS011;12057;52.042;6.830;2023-02-22T00:16:49;136.97;;;39.00;;
23754;SDS011;12057;52.042;6.830;2023-02-22T00:21:50;143.27;;;38.77;;
23754;SDS011;12057;52.042;6.830;2023-02-22T00:26:54;156.23;;;39.55;;
23754;SDS011;12057;52.042;6.830;2023-02-22T00:31:55;157.77;;;41.67;;
23754;SDS011;12057;52.042;6.830;2023-02-22T00:36:56;163.17;;;40.80;;
23754;SDS011;12057;52.042;6.830;2023-02-22T00:41:57;158.32;;;42.72;;
23754;SDS011;12057;52.042;6.830;2023-02-22T00:46:58;173.40;;;43.30;;
23754;SDS011;12057;52.042;6.830;2023-02-22T00:51:58;197.47;;;45.70;;
23754;SDS011;12057;52.042;6.830;2023-02-22T00:56:59;184.82;;;45.08;;
23754;SDS011;12057;52.042;6.830;2023-02-22T01:02:01;187.88;;;47.65;;
23754;SDS011;12057;52.042;6.830;2023-02-22T01:07:02;186.70;;;46.90;;
23754;SDS011;12057;52.042;6.830;2023-02-22T01:12:02;196.10;;;48.77;;
23754;SDS011;12057;52.042;6.830;2023-02-22T01:17:03;187.88;;;48.90;;
23754;SDS011;12057;52.042;6.830;2023-02-22T01:22:04;192.60;;;48.77;;
23754;SDS011;12057;52.042;6.830;2023-02-22T01:27:05;182.87;;;47.20;;
23754;SDS011;12057;52.042;6.830;2023-02-22T01:32:06;197.60;;;49.00;;
23754;SDS011;12057;52.042;6.830;2023-02-22T01:37:07;194.50;;;48.45;;
23754;SDS011;12057;52.042;6.830;2023-02-22T01:42:07;194.30;;;49.63;;
23754;SDS011;12057;52.042;6.830;2023-02-22T01:47:08;179.27;;;46.63;;
23754;SDS011;12057;52.042;6.830;2023-02-22T01:52:10;183.20;;;46.40;;
23754;SDS011;12057;52.042;6.830;2023-02-22T01:57:20;171.55;;;43.60;;
23754;SDS011;12057;52.042;6.830;2023-02-22T02:02:31;179.50;;;44.58;;
23754;SDS011;12057;52.042;6.830;2023-02-22T02:07:33;177.77;;;45.93;;
23754;SDS011;12057;52.042;6.830;2023-02-22T02:12:35;178.43;;;44.30;;
23754;SDS011;12057;52.042;6.830;2023-02-22T02:17:36;198.85;;;46.25;;
23754;SDS011;12057;52.042;6.830;2023-02-22T02:22:47;183.57;;;42.77;;
23754;SDS011;12057;52.042;6.830;2023-02-22T02:33:19;174.18;;;42.30;;
23754;SDS011;12057;52.042;6.830;2023-02-22T02:48:48;180.30;;;40.60;;
23754;SDS011;12057;52.042;6.830;2023-02-22T02:53:53;180.43;;;41.67;;
23754;SDS011;12057;52.042;6.830;2023-02-22T02:58:55;171.15;;;40.97;;
23754;SDS011;12057;52.042;6.830;2023-02-22T03:04:03;175.63;;;42.42;;
23754;SDS011;12057;52.042;6.830;2023-02-22T03:14:40;166.95;;;40.90;;
23754;SDS011;12057;52.042;6.830;2023-02-22T03:19:50;159.50;;;37.53;;
23754;SDS011;12057;52.042;6.830;2023-02-22T03:24:58;160.00;;;39.63;;
23754;SDS011;12057;52.042;6.830;2023-02-22T03:30:13;180.68;;;38.15;;
23754;SDS011;12057;52.042;6.830;2023-02-22T03:35:19;187.40;;;41.80;;
23754;SDS011;12057;52.042;6.830;2023-02-22T03:40:27;160.13;;;38.15;;
23754;SDS011;12057;52.042;6.830;2023-02-22T03:45:42;174.25;;;37.95;;
23754;SDS011;12057;52.042;6.830;2023-02-22T03:50:46;175.15;;;39.53;;
23754;SDS011;12057;52.042;6.830;2023-02-22T03:55:49;182.90;;;43.10;;
23754;SDS011;12057;52.042;6.830;2023-02-22T04:00:54;187.27;;;42.00;;
23754;SDS011;12057;52.042;6.830;2023-02-22T04:05:55;171.23;;;38.83;;
23754;SDS011;12057;52.042;6.830;2023-02-22T04:10:56;164.90;;;37.50;;
23754;SDS011;12057;52.042;6.830;2023-02-22T04:21:27;222.13;;;45.15;;
23754;SDS011;12057;52.042;6.830;2023-02-22T04:26:28;246.70;;;48.87;;
23754;SDS011;12057;52.042;6.830;2023-02-22T04:31:29;278.07;;;54.17;;
23754;SDS011;12057;52.042;6.830;2023-02-22T04:36:30;258.52;;;51.30;;
23754;SDS011;12057;52.042;6.830;2023-02-22T04:41:31;284.08;;;55.80;;
23754;SDS011;12057;52.042;6.830;2023-02-22T04:46:33;296.35;;;57.78;;
23754;SDS011;12057;52.042;6.830;2023-02-22T04:51:34;284.97;;;53.60;;
23754;SDS011;12057;52.042;6.830;2023-02-22T04:56:35;285.10;;;52.22;;
23754;SDS011;12057;52.042;6.830;2023-02-22T05:01:37;256.70;;;50.07;;
23754;SDS011;12057;52.042;6.830;2023-02-22T05:06:38;278.58;;;54.75;;
23754;SDS011;12057;52.042;6.830;2023-02-22T05:11:39;309.03;;;55.50;;
23754;SDS011;12057;52.042;6.830;2023-02-22T05:16:39;316.50;;;53.63;;
23754;SDS011;12057;52.042;6.830;2023-02-22T05:21:40;287.67;;;53.10;;
23754;SDS011;12057;52.042;6.830;2023-02-22T05:26:44;284.87;;;49.57;;
23754;SDS011;12057;52.042;6.830;2023-02-22T05:31:45;262.65;;;51.35;;
23754;SDS011;12057;52.042;6.830;2023-02-22T05:36:46;295.27;;;53.23;;
23754;SDS011;12057;52.042;6.830;2023-02-22T05:41:47;299.00;;;54.73;;
23754;SDS011;12057;52.042;6.830;2023-02-22T05:46:47;308.23;;;52.13;;
23754;SDS011;12057;52.042;6.830;2023-02-22T05:51:48;376.90;;;56.73;;
23754;SDS011;12057;52.042;6.830;2023-02-22T05:56:49;303.67;;;49.77;;
23754;SDS011;12057;52.042;6.830;2023-02-22T06:01:49;269.83;;;44.27;;
23754;SDS011;12057;52.042;6.830;2023-02-22T06:06:50;260.17;;;44.17;;
23754;SDS011;12057;52.042;6.830;2023-02-22T06:11:51;244.37;;;45.20;;
23754;SDS011;12057;52.042;6.830;2023-02-22T06:16:52;268.07;;;43.63;;
23754;SDS011;12057;52.042;6.830;2023-02-22T06:21:55;246.43;;;43.97;;
23754;SDS011;12057;52.042;6.830;2023-02-22T06:26:59;270.77;;;46.30;;
23754;SDS011;12057;52.042;6.830;2023-02-22T06:32:01;241.45;;;45.75;;
23754;SDS011;12057;52.042;6.830;2023-02-22T06:37:01;248.50;;;42.30;;
23754;SDS011;12057;52.042;6.830;2023-02-22T06:42:02;298.13;;;45.77;;
23754;SDS011;12057;52.042;6.830;2023-02-22T06:47:03;247.02;;;44.22;;
23754;SDS011;12057;52.042;6.830;2023-02-22T06:52:08;235.70;;;44.00;;
23754;SDS011;12057;52.042;6.830;2023-02-22T06:57:09;241.15;;;43.72;;
23754;SDS011;12057;52.042;6.830;2023-02-22T07:02:10;231.03;;;39.90;;
23754;SDS011;12057;52.042;6.830;2023-02-22T07:07:15;214.68;;;42.45;;
23754;SDS011;12057;52.042;6.830;2023-02-22T07:12:16;211.40;;;40.97;;
23754;SDS011;12057;52.042;6.830;2023-02-22T07:17:16;202.33;;;40.27;;
23754;SDS011;12057;52.042;6.830;2023-02-22T07:22:17;230.67;;;39.03;;
23754;SDS011;12057;52.042;6.830;2023-02-22T07:27:18;207.80;;;38.63;;
23754;SDS011;12057;52.042;6.830;2023-02-22T07:32:18;207.23;;;38.63;;
23754;SDS011;12057;52.042;6.830;2023-02-22T07:37:19;224.23;;;43.60;;
23754;SDS011;12057;52.042;6.830;2023-02-22T07:42:20;176.23;;;35.90;;
23754;SDS011;12057;52.042;6.830;2023-02-22T07:47:21;205.77;;;41.23;;
23754;SDS011;12057;52.042;6.830;2023-02-22T07:52:21;216.87;;;40.07;;
23754;SDS011;12057;52.042;6.830;2023-02-22T07:57:22;195.20;;;41.17;;
23754;SDS011;12057;52.042;6.830;2023-02-22T08:02:24;232.13;;;44.57;;
23754;SDS011;12057;52.042;6.830;2023-02-22T08:07:25;203.93;;;43.97;;
23754;SDS011;12057;52.042;6.830;2023-02-22T08:12:26;234.67;;;47.53;;
23754;SDS011;12057;52.042;6.830;2023-02-22T08:17:27;213.53;;;47.17;;
23754;SDS011;12057;52.042;6.830;2023-02-22T08:22:27;202.90;;;46.87;;
23754;SDS011;12057;52.042;6.830;2023-02-22T08:27:28;211.60;;;46.83;;
23754;SDS011;12057;52.042;6.830;2023-02-22T08:32:29;187.50;;;45.17;;
23754;SDS011;12057;52.042;6.830;2023-02-22T08:37:30;190.63;;;47.70;;
23754;SDS011;12057;52.042;6.830;2023-02-22T08:42:31;216.23;;;50.40;;
23754;SDS011;12057;52.042;6.830;2023-02-22T08:47:31;193.10;;;47.13;;
23754;SDS011;12057;52.042;6.830;2023-02-22T08:52:33;188.00;;;48.47;;
23754;SDS011;12057;52.042;6.830;2023-02-22T08:57:34;166.57;;;46.55;;
23754;SDS011;12057;52.042;6.830;2023-02-22T09:02:35;161.60;;;44.03;;
23754;SDS011;12057;52.042;6.830;2023-02-22T09:07:35;155.60;;;45.07;;
23754;SDS011;12057;52.042;6.830;2023-02-22T09:12:36;151.93;;;42.33;;
23754;SDS011;12057;52.042;6.830;2023-02-22T09:17:37;146.33;;;43.27;;
23754;SDS011;12057;52.042;6.830;2023-02-22T09:22:37;153.90;;;44.80;;
23754;SDS011;12057;52.042;6.830;2023-02-22T09:27:38;148.30;;;43.22;;
23754;SDS011;12057;52.042;6.830;2023-02-22T09:32:39;148.43;;;42.50;;
23754;SDS011;12057;52.042;6.830;2023-02-22T09:37:40;132.40;;;39.60;;
23754;SDS011;12057;52.042;6.830;2023-02-22T09:42:46;121.50;;;39.72;;
23754;SDS011;12057;52.042;6.830;2023-02-22T09:47:59;116.75;;;37.53;;
23754;SDS011;12057;52.042;6.830;2023-02-22T09:53:04;107.15;;;33.78;;
23754;SDS011;12057;52.042;6.830;2023-02-22T09:58:22;131.63;;;38.75;;
23754;SDS011;12057;52.042;6.830;2023-02-22T10:03:41;119.38;;;37.13;;
23754;SDS011;12057;52.042;6.830;2023-02-22T10:09:17;106.95;;;36.22;;
23754;SDS011;12057;52.042;6.830;2023-02-22T10:25:21;109.07;;;35.00;;
23754;SDS011;12057;52.042;6.830;2023-02-22T10:30:26;105.93;;;32.50;;
23754;SDS011;12057;52.042;6.830;2023-02-22T10:35:32;112.68;;;35.00;;
23754;SDS011;12057;52.042;6.830;2023-02-22T10:40:36;98.10;;;32.83;;
23754;SDS011;12057;52.042;6.830;2023-02-22T10:45:38;110.20;;;34.63;;
23754;SDS011;12057;52.042;6.830;2023-02-22T10:50:40;108.83;;;36.47;;
23754;SDS011;12057;52.042;6.830;2023-02-22T11:06:20;101.00;;;33.88;;
23754;SDS011;12057;52.042;6.830;2023-02-22T11:11:22;100.60;;;33.43;;
23754;SDS011;12057;52.042;6.830;2023-02-22T11:21:31;110.05;;;35.75;;
23754;SDS011;12057;52.042;6.830;2023-02-22T11:27:14;100.07;;;34.00;;
23754;SDS011;12057;52.042;6.830;2023-02-22T11:32:00;106.78;;;35.38;;
23754;SDS011;12057;52.042;6.830;2023-02-22T11:37:16;100.93;;;34.42;;
23754;SDS011;12057;52.042;6.830;2023-02-22T11:42:25;108.38;;;34.22;;
23754;SDS011;12057;52.042;6.830;2023-02-22T11:47:27;97.90;;;32.92;;
23754;SDS011;12057;52.042;6.830;2023-02-22T11:52:37;132.00;;;43.38;;
23754;SDS011;12057;52.042;6.830;2023-02-22T11:57:57;89.55;;;32.28;;
23754;SDS011;12057;52.042;6.830;2023-02-22T12:14:07;73.45;;;29.45;;
23754;SDS011;12057;52.042;6.830;2023-02-22T12:30:26;85.65;;;31.77;;
23754;SDS011;12057;52.042;6.830;2023-02-22T12:35:33;77.95;;;29.45;;
23754;SDS011;12057;52.042;6.830;2023-02-22T12:40:42;65.90;;;26.13;;
23754;SDS011;12057;52.042;6.830;2023-02-22T12:46:12;76.50;;;29.58;;
23754;SDS011;12057;52.042;6.830;2023-02-22T12:57:13;70.88;;;25.58;;
23754;SDS011;12057;52.042;6.830;2023-02-22T13:02:26;63.95;;;24.08;;
23754;SDS011;12057;52.042;6.830;2023-02-22T13:08:01;56.53;;;22.33;;
23754;SDS011;12057;52.042;6.830;2023-02-22T13:29:41;58.58;;;21.95;;
23754;SDS011;12057;52.042;6.830;2023-02-22T13:50:47;50.83;;;19.45;;
23754;SDS011;12057;52.042;6.830;2023-02-22T13:55:55;43.75;;;18.00;;
23754;SDS011;12057;52.042;6.830;2023-02-22T14:00:59;47.22;;;20.05;;
23754;SDS011;12057;52.042;6.830;2023-02-22T14:06:00;48.20;;;19.47;;
23754;SDS011;12057;52.042;6.830;2023-02-22T14:11:38;52.70;;;20.02;;
23754;SDS011;12057;52.042;6.830;2023-02-22T14:16:26;46.63;;;19.48;;
23754;SDS011;12057;52.042;6.830;2023-02-22T14:21:31;48.80;;;19.77;;
23754;SDS011;12057;52.042;6.830;2023-02-22T14:26:36;43.65;;;19.30;;
23754;SDS011;12057;52.042;6.830;2023-02-22T14:37:11;55.80;;;21.05;;
23754;SDS011;12057;52.042;6.830;2023-02-22T14:42:57;48.88;;;18.95;;
23754;SDS011;12057;52.042;6.830;2023-02-22T14:53:07;55.17;;;21.42;;
23754;SDS011;12057;52.042;6.830;2023-02-22T14:58:35;49.20;;;20.70;;
23754;SDS011;12057;52.042;6.830;2023-02-22T15:03:41;60.22;;;22.35;;
23754;SDS011;12057;52.042;6.830;2023-02-22T15:08:41;69.30;;;22.33;;
23754;SDS011;12057;52.042;6.830;2023-02-22T15:13:48;54.85;;;20.75;;
23754;SDS011;12057;52.042;6.830;2023-02-22T15:18:54;50.65;;;20.13;;
23754;SDS011;12057;52.042;6.830;2023-02-22T15:23:59;51.80;;;21.50;;
23754;SDS011;12057;52.042;6.830;2023-02-22T15:29:15;54.85;;;22.38;;
23754;SDS011;12057;52.042;6.830;2023-02-22T15:34:30;49.00;;;20.08;;
23754;SDS011;12057;52.042;6.830;2023-02-22T15:39:32;48.83;;;19.85;;
23754;SDS011;12057;52.042;6.830;2023-02-22T15:44:42;62.20;;;20.35;;
23754;SDS011;12057;52.042;6.830;2023-02-22T15:55:24;53.42;;;21.25;;
23754;SDS011;12057;52.042;6.830;2023-02-22T16:00:36;59.75;;;22.13;;
23754;SDS011;12057;52.042;6.830;2023-02-22T16:05:51;62.85;;;21.95;;
23754;SDS011;12057;52.042;6.830;2023-02-22T16:11:03;55.05;;;20.92;;
23754;SDS011;12057;52.042;6.830;2023-02-22T16:16:23;62.17;;;20.95;;
23754;SDS011;12057;52.042;6.830;2023-02-22T16:21:48;54.67;;;18.37;;
23754;SDS011;12057;52.042;6.830;2023-02-22T16:32:05;74.32;;;20.13;;
23754;SDS011;12057;52.042;6.830;2023-02-22T16:37:17;41.00;;;17.42;;
23754;SDS011;12057;52.042;6.830;2023-02-22T16:42:22;46.70;;;18.15;;
23754;SDS011;12057;52.042;6.830;2023-02-22T16:53:31;39.60;;;14.85;;
23754;SDS011;12057;52.042;6.830;2023-02-22T16:58:33;45.45;;;17.45;;
23754;SDS011;12057;52.042;6.830;2023-02-22T17:03:37;47.63;;;16.58;;
23754;SDS011;12057;52.042;6.830;2023-02-22T17:08:39;38.67;;;15.43;;
23754;SDS011;12057;52.042;6.830;2023-02-22T17:13:40;36.88;;;15.43;;
23754;SDS011;12057;52.042;6.830;2023-02-22T17:18:41;37.03;;;16.17;;
23754;SDS011;12057;52.042;6.830;2023-02-22T17:23:45;42.45;;;15.70;;
23754;SDS011;12057;52.042;6.830;2023-02-22T17:28:46;33.22;;;15.73;;
23754;SDS011;12057;52.042;6.830;2023-02-22T17:33:47;43.57;;;16.63;;
23754;SDS011;12057;52.042;6.830;2023-02-22T17:38:50;35.25;;;15.13;;
23754;SDS011;12057;52.042;6.830;2023-02-22T17:43:54;31.53;;;15.00;;
23754;SDS011;12057;52.042;6.830;2023-02-22T17:48:57;39.28;;;17.20;;
23754;SDS011;12057;52.042;6.830;2023-02-22T17:54:01;44.10;;;16.97;;
23754;SDS011;12057;52.042;6.830;2023-02-22T17:59:02;43.45;;;18.13;;
23754;SDS011;12057;52.042;6.830;2023-02-22T18:04:03;40.57;;;18.43;;
23754;SDS011;12057;52.042;6.830;2023-02-22T18:09:04;48.38;;;18.83;;
23754;SDS011;12057;52.042;6.830;2023-02-22T18:14:09;50.38;;;20.08;;
23754;SDS011;12057;52.042;6.830;2023-02-22T18:19:11;49.45;;;20.13;;
23754;SDS011;12057;52.042;6.830;2023-02-22T18:24:12;41.83;;;19.77;;
23754;SDS011;12057;52.042;6.830;2023-02-22T18:29:12;52.60;;;20.60;;
23754;SDS011;12057;52.042;6.830;2023-02-22T18:34:13;48.90;;;21.60;;
23754;SDS011;12057;52.042;6.830;2023-02-22T18:39:14;54.75;;;22.58;;
23754;SDS011;12057;52.042;6.830;2023-02-22T18:44:15;56.67;;;22.80;;
23754;SDS011;12057;52.042;6.830;2023-02-22T18:49:16;52.22;;;25.30;;
23754;SDS011;12057;52.042;6.830;2023-02-22T18:54:17;71.20;;;28.10;;
23754;SDS011;12057;52.042;6.830;2023-02-22T18:59:18;59.93;;;27.30;;
23754;SDS011;12057;52.042;6.830;2023-02-22T19:04:29;61.83;;;28.53;;
23754;SDS011;12057;52.042;6.830;2023-02-22T19:09:30;64.33;;;28.63;;
23754;SDS011;12057;52.042;6.830;2023-02-22T19:14:31;59.93;;;29.37;;
23754;SDS011;12057;52.042;6.830;2023-02-22T19:19:32;70.97;;;29.43;;
23754;SDS011;12057;52.042;6.830;2023-02-22T19:24:32;61.07;;;28.47;;
23754;SDS011;12057;52.042;6.830;2023-02-22T19:29:35;70.72;;;28.27;;
23754;SDS011;12057;52.042;6.830;2023-02-22T19:34:39;63.60;;;30.40;;
23754;SDS011;12057;52.042;6.830;2023-02-22T19:39:42;62.05;;;29.42;;
23754;SDS011;12057;52.042;6.830;2023-02-22T19:44:43;67.60;;;30.83;;
23754;SDS011;12057;52.042;6.830;2023-02-22T19:49:44;62.40;;;27.53;;
23754;SDS011;12057;52.042;6.830;2023-02-22T19:54:46;66.93;;;32.22;;
23754;SDS011;12057;52.042;6.830;2023-02-22T19:59:48;65.65;;;32.15;;
23754;SDS011;12057;52.042;6.830;2023-02-22T20:04:49;66.25;;;31.70;;
23754;SDS011;12057;52.042;6.830;2023-02-22T20:09:50;68.93;;;34.33;;
23754;SDS011;12057;52.042;6.830;2023-02-22T20:14:54;73.17;;;34.00;;
23754;SDS011;12057;52.042;6.830;2023-02-22T20:19:57;79.93;;;32.83;;
23754;SDS011;12057;52.042;6.830;2023-02-22T20:24:58;74.03;;;34.03;;
23754;SDS011;12057;52.042;6.830;2023-02-22T20:29:58;86.43;;;34.63;;
23754;SDS011;12057;52.042;6.830;2023-02-22T20:34:59;72.57;;;34.53;;
23754;SDS011;12057;52.042;6.830;2023-02-22T20:40:00;83.00;;;36.83;;
23754;SDS011;12057;52.042;6.830;2023-02-22T20:45:03;92.80;;;36.67;;
23754;SDS011;12057;52.042;6.830;2023-02-22T20:50:05;81.70;;;36.88;;
23754;SDS011;12057;52.042;6.830;2023-02-22T20:55:07;74.53;;;34.78;;
23754;SDS011;12057;52.042;6.830;2023-02-22T21:00:10;86.38;;;37.97;;
23754;SDS011;12057;52.042;6.830;2023-02-22T21:05:23;76.85;;;36.28;;
23754;SDS011;12057;52.042;6.830;2023-02-22T21:10:23;88.57;;;39.42;;
23754;SDS011;12057;52.042;6.830;2023-02-22T21:15:24;80.27;;;37.83;;
23754;SDS011;12057;52.042;6.830;2023-02-22T21:20:25;97.07;;;42.67;;
23754;SDS011;12057;52.042;6.830;2023-02-22T21:25:25;90.40;;;39.53;;
23754;SDS011;12057;52.042;6.830;2023-02-22T21:30:29;100.38;;;40.97;;
23754;SDS011;12057;52.042;6.830;2023-02-22T21:35:35;101.68;;;43.33;;
23754;SDS011;12057;52.042;6.830;2023-02-22T21:40:39;114.68;;;48.22;;
23754;SDS011;12057;52.042;6.830;2023-02-22T21:45:41;112.65;;;45.58;;
23754;SDS011;12057;52.042;6.830;2023-02-22T21:50:44;111.23;;;44.83;;
23754;SDS011;12057;52.042;6.830;2023-02-22T21:55:47;103.60;;;43.28;;
23754;SDS011;12057;52.042;6.830;2023-02-22T22:00:48;98.45;;;42.50;;
23754;SDS011;12057;52.042;6.830;2023-02-22T22:05:48;110.20;;;44.50;;
23754;SDS011;12057;52.042;6.830;2023-02-22T22:10:50;114.38;;;45.72;;
23754;SDS011;12057;52.042;6.830;2023-02-22T22:15:54;114.00;;;47.63;;
23754;SDS011;12057;52.042;6.830;2023-02-22T22:20:54;126.00;;;50.30;;
23754;SDS011;12057;52.042;6.830;2023-02-22T22:26:05;111.53;;;47.03;;
23754;SDS011;12057;52.042;6.830;2023-02-22T22:31:11;100.95;;;46.92;;
23754;SDS011;12057;52.042;6.830;2023-02-22T22:36:15;109.85;;;46.92;;
23754;SDS011;12057;52.042;6.830;2023-02-22T22:41:18;116.05;;;47.60;;
23754;SDS011;12057;52.042;6.830;2023-02-22T22:46:20;143.07;;;53.58;;
23754;SDS011;12057;52.042;6.830;2023-02-22T22:51:21;144.97;;;53.47;;
23754;SDS011;12057;52.042;6.830;2023-02-22T22:56:22;142.13;;;53.63;;
23754;SDS011;12057;52.042;6.830;2023-02-22T23:01:27;128.80;;;53.22;;
23754;SDS011;12057;52.042;6.830;2023-02-22T23:06:33;133.95;;;52.70;;
23754;SDS011;12057;52.042;6.830;2023-02-22T23:11:47;136.85;;;53.85;;
23754;SDS011;12057;52.042;6.830;2023-02-22T23:16:50;136.05;;;55.30;;
23754;SDS011;12057;52.042;6.830;2023-02-22T23:21:52;148.32;;;57.60;;
23754;SDS011;12057;52.042;6.830;2023-02-22T23:26:55;150.27;;;58.42;;
23754;SDS011;12057;52.042;6.830;2023-02-22T23:31:59;157.50;;;58.70;;
23754;SDS011;12057;52.042;6.830;2023-02-22T23:37:00;155.07;;;60.40;;
23754;SDS011;12057;52.042;6.830;2023-02-22T23:42:04;149.65;;;56.90;;
23754;SDS011;12057;52.042;6.830;2023-02-22T23:47:07;158.05;;;60.08;;
23754;SDS011;12057;52.042;6.830;2023-02-22T23:52:08;149.90;;;58.97;;
23754;SDS011;12057;52.042;6.830;2023-02-22T23:57:12;148.82;;;56.67;;
